EST,Max TemperatureF,Mean TemperatureF,Min TemperatureF,Max Dew PointF,MeanDew PointF,Min DewpointF,Max Humidity, Mean Humidity, Min Humidity, Max Sea Level PressureIn, Mean Sea Level PressureIn, Min Sea Level PressureIn, Max VisibilityMiles, Mean VisibilityMiles, Min VisibilityMiles, Max Wind SpeedMPH, Mean Wind SpeedMPH, Max Gust SpeedMPH,PrecipitationIn, CloudCover, Events, WindDirDegrees
2013-12-1,77,74,70,68,66,65,90,80,69,30.12,30.05,29.99,10,10,10,15,10,19,0.00,0,,10
2013-12-2,76,71,65,68,64,63,100,82,64,29.97,29.93,29.86,10,10,10,16,5,19,0.00,0,,347
2013-12-3,79,74,68,66,64,62,84,71,58,30.01,29.96,29.92,10,10,10,13,9,17,0.00,3,,133
2013-12-4,81,78,74,71,69,66,93,81,69,30.08,30.03,29.97,10,10,10,15,9,20,0.09,3,Rain,127
2013-12-5,81,77,73,70,69,68,87,78,69,30.14,30.09,30.05,10,10,10,17,11,23,0.00,0,,102
2013-12-6,81,79,77,73,70,66,85,80,74,30.17,30.11,30.06,10,10,10,20,14,25,0.00,1,,121
2013-12-7,83,78,73,73,69,66,93,81,69,30.20,30.15,30.12,10,10,10,17,9,21,T,1,,77
2013-12-8,81,77,73,72,70,68,87,77,67,30.17,30.12,30.10,10,9,2,20,13,25,0.26,4,Rain,95
2013-12-9,81,78,75,71,70,67,79,71,62,30.17,30.12,30.08,10,10,10,21,13,27,T,1,,107
2013-12-10,83,80,77,74,72,70,88,81,74,30.15,30.11,30.08,10,10,10,15,9,19,0.00,3,,98
2013-12-11,81,77,73,75,73,71,94,84,74,30.18,30.13,30.10,10,9,2,23,9,30,0.52,5,Rain,71
2013-12-12,80,76,71,74,70,62,94,84,73,30.21,30.16,30.12,10,10,10,21,11,29,T,4,,31
2013-12-13,80,75,70,71,67,63,87,78,69,30.15,30.10,30.05,10,10,10,22,14,30,T,3,,70
2013-12-14,81,79,76,74,72,70,85,80,74,30.07,30.02,29.98,10,10,10,23,13,28,T,1,,131
2013-12-15,81,78,74,76,74,70,94,90,85,30.08,30.02,29.97,10,10,2,16,8,21,0.07,3,Rain,253
2013-12-16,75,72,69,70,66,63,87,80,73,30.17,30.10,30.06,10,10,10,17,13,24,0.00,7,,4
2013-12-17,76,72,68,68,66,62,84,79,74,30.18,30.14,30.09,10,10,10,17,8,23,0.00,5,,19
2013-12-18,75,72,69,65,60,58,84,71,57,30.23,30.18,30.13,10,10,10,20,12,25,0.00,0,,36
2013-12-19,77,73,68,67,64,61,84,74,64,30.22,30.16,30.12,10,10,10,16,10,23,0.00,4,,53
2013-12-20,80,76,71,72,71,68,93,84,74,30.14,30.10,30.06,10,10,10,21,14,26,0.00,2,,97
2013-12-21,81,79,76,73,72,71,87,81,74,30.12,30.07,30.02,10,10,10,20,16,28,0.00,1,,117
2013-12-22,81,79,77,74,73,72,88,81,74,30.14,30.09,30.05,10,10,10,20,13,25,0.00,1,,117
2013-12-23,82,79,76,75,73,72,88,81,74,30.17,30.13,30.10,10,10,10,17,10,22,T,2,Rain,128
2013-12-24,81,75,69,73,69,65,100,87,74,30.19,30.13,30.09,10,10,10,20,9,25,0.00,4,,19
2013-12-25,76,73,69,69,67,64,93,86,79,30.15,30.11,30.06,10,10,2,17,11,25,0.01,6,Rain,51
2013-12-26,79,75,71,71,70,69,93,85,76,30.14,30.09,30.05,10,10,10,17,9,22,0.00,3,,46
2013-12-27,78,75,72,73,72,70,93,86,79,30.15,30.10,30.07,10,10,7,15,9,21,0.10,4,Rain-Thunderstorm,52
2013-12-28,81,78,74,73,72,71,100,87,74,30.14,30.07,30.01,10,10,9,21,15,26,T,2,,102
2013-12-29,78,76,73,74,73,72,94,87,79,30.06,30.00,29.97,10,10,7,18,8,22,0.03,2,Rain,181
2013-12-30,77,75,72,73,70,65,100,87,73,30.13,30.06,30.00,10,10,8,16,7,21,0.01,6,Rain,13
2013-12-31,79,75,71,71,69,68,93,84,74,30.19,30.14,30.10,10,10,10,18,13,25,0.00,6,,41